createdAt,value
2023-04-22T00:01:55.858Z,100.00
2023-04-22T00:04:22.568Z,100.00
2023-04-22T00:06:49.256Z,100.00
2023-04-22T00:09:15.826Z,100.00
2023-04-22T00:11:42.270Z,100.00
2023-04-22T00:14:08.714Z,100.00
2023-04-22T00:16:35.294Z,100.00
2023-04-22T00:19:01.800Z,100.00
2023-04-22T00:21:28.584Z,100.00
2023-04-22T00:23:55.079Z,100.00
2023-04-22T00:26:21.554Z,100.00
2023-04-22T00:28:48.036Z,100.00
2023-04-22T00:31:14.479Z,100.00
2023-04-22T00:33:41.052Z,100.00
2023-04-22T00:36:07.797Z,100.00
2023-04-22T00:38:34.260Z,100.00
2023-04-22T00:41:00.824Z,100.00
2023-04-22T00:43:27.269Z,100.00
2023-04-22T00:45:53.866Z,100.00
2023-04-22T00:48:20.896Z,100.00
2023-04-22T00:50:47.405Z,100.00
2023-04-22T00:53:13.868Z,100.00
2023-04-22T00:55:40.432Z,100.00
2023-04-22T00:58:06.978Z,100.00
2023-04-22T01:00:33.414Z,100.00
2023-04-22T01:03:00.234Z,100.00
2023-04-22T01:05:28.976Z,100.00
2023-04-22T01:07:55.474Z,100.00
2023-04-22T01:10:22.028Z,100.00
2023-04-22T01:12:48.510Z,100.00
2023-04-22T01:15:14.989Z,100.00
2023-04-22T01:17:41.613Z,100.00
2023-04-22T01:20:10.575Z,100.00
2023-04-22T01:22:41.826Z,100.00
2023-04-22T01:25:12.347Z,100.00
2023-04-22T01:27:39.653Z,100.00
2023-04-22T01:30:07.658Z,100.00
2023-04-22T01:32:34.293Z,100.00
2023-04-22T01:35:00.829Z,100.00
2023-04-22T01:37:28.670Z,100.00
2023-04-22T01:39:55.595Z,100.00
2023-04-22T01:42:22.319Z,100.00
2023-04-22T01:44:48.757Z,100.00
2023-04-22T01:47:15.288Z,100.00
2023-04-22T01:49:42.380Z,100.00
2023-04-22T01:52:09.012Z,100.00
2023-04-22T01:54:35.772Z,100.00
2023-04-22T01:57:10.016Z,100.00
2023-04-22T01:59:36.623Z,100.00
2023-04-22T02:02:03.220Z,100.00
2023-04-22T02:04:29.723Z,100.00
2023-04-22T02:06:56.228Z,100.00
2023-04-22T02:09:22.686Z,100.00
2023-04-22T02:11:49.107Z,100.00
2023-04-22T02:14:15.575Z,100.00
2023-04-22T02:16:42.435Z,100.00
2023-04-22T02:19:08.936Z,100.00
2023-04-22T02:21:35.542Z,100.00
2023-04-22T02:24:02.020Z,100.00
2023-04-22T02:26:28.684Z,100.00
2023-04-22T02:28:55.111Z,100.00
2023-04-22T02:31:21.618Z,100.00
2023-04-22T02:33:48.065Z,100.00
2023-04-22T02:36:14.515Z,100.00
2023-04-22T02:38:40.963Z,100.00
2023-04-22T02:41:07.478Z,100.00
2023-04-22T02:43:33.929Z,100.00
2023-04-22T02:46:00.392Z,100.00
2023-04-22T02:48:26.852Z,100.00
2023-04-22T02:50:53.358Z,100.00
2023-04-22T02:53:19.785Z,100.00
2023-04-22T02:55:46.249Z,100.00
2023-04-22T02:58:12.741Z,100.00
2023-04-22T03:00:39.297Z,100.00
2023-04-22T03:03:05.971Z,100.00
2023-04-22T03:05:32.486Z,100.00
2023-04-22T03:07:58.912Z,100.00
2023-04-22T03:10:25.330Z,100.00
2023-04-22T03:12:51.781Z,100.00
2023-04-22T03:15:21.219Z,100.00
2023-04-22T03:17:48.281Z,100.00
2023-04-22T03:20:15.137Z,100.00
2023-04-22T03:22:41.680Z,100.00
2023-04-22T03:25:08.558Z,100.00
2023-04-22T03:27:35.014Z,100.00
2023-04-22T03:30:01.577Z,100.00
2023-04-22T03:32:28.092Z,100.00
2023-04-22T03:34:54.550Z,100.00
2023-04-22T03:37:21.017Z,100.00
2023-04-22T03:39:47.476Z,100.00
2023-04-22T03:42:14.629Z,100.00
2023-04-22T03:44:41.396Z,100.00
2023-04-22T03:47:07.860Z,100.00
2023-04-22T03:49:34.856Z,100.00
2023-04-22T03:52:01.410Z,100.00
2023-04-22T03:54:27.931Z,100.00
2023-04-22T03:56:54.398Z,100.00
2023-04-22T03:59:21.128Z,100.00
2023-04-22T04:01:47.651Z,100.00
2023-04-22T04:04:14.220Z,100.00
2023-04-22T04:06:41.017Z,100.00
2023-04-22T04:09:07.528Z,100.00
2023-04-22T04:11:34.005Z,100.00
2023-04-22T04:14:00.443Z,100.00
2023-04-22T04:16:26.982Z,100.00
2023-04-22T04:18:53.481Z,100.00
2023-04-22T04:21:19.915Z,100.00
2023-04-22T04:23:47.210Z,100.00
2023-04-22T04:26:15.075Z,100.00
2023-04-22T04:28:42.123Z,100.00
2023-04-22T04:31:08.680Z,100.00
2023-04-22T04:33:36.945Z,100.00
2023-04-22T04:36:03.500Z,100.00
2023-04-22T04:38:30.203Z,100.00
2023-04-22T04:40:56.665Z,100.00
2023-04-22T04:43:25.788Z,100.00
2023-04-22T04:45:52.725Z,100.00
2023-04-22T04:48:19.943Z,100.00
2023-04-22T04:50:47.164Z,100.00
2023-04-22T04:53:13.737Z,100.00
2023-04-22T04:55:40.245Z,100.00
2023-04-22T04:58:06.998Z,100.00
2023-04-22T05:00:33.437Z,100.00
2023-04-22T05:03:00.043Z,100.00
2023-04-22T05:05:26.714Z,100.00
2023-04-22T05:07:53.850Z,100.00
2023-04-22T05:10:21.352Z,100.00
2023-04-22T05:12:47.909Z,100.00
2023-04-22T05:15:15.269Z,100.00
2023-04-22T05:17:41.817Z,100.00
2023-04-22T05:20:08.678Z,100.00
2023-04-22T05:22:36.622Z,100.00
2023-04-22T05:25:04.526Z,100.00
2023-04-22T05:27:31.170Z,100.00
2023-04-22T05:29:57.600Z,100.00
2023-04-22T05:32:24.244Z,100.00
2023-04-22T05:34:50.874Z,100.00
2023-04-22T05:37:17.312Z,100.00
2023-04-22T05:39:43.778Z,100.00
2023-04-22T05:42:10.250Z,100.00
2023-04-22T05:44:36.713Z,100.00
2023-04-22T05:47:03.332Z,100.00
2023-04-22T05:49:29.767Z,100.00
2023-04-22T05:51:56.231Z,100.00
2023-04-22T05:54:22.686Z,100.00
2023-04-22T05:56:49.263Z,100.00
2023-04-22T05:59:15.996Z,100.00
2023-04-22T06:01:42.818Z,100.00
2023-04-22T06:04:10.165Z,100.00
2023-04-22T06:06:37.201Z,100.00
2023-04-22T06:09:03.863Z,100.00
2023-04-22T06:11:30.410Z,100.00
2023-04-22T06:13:56.926Z,100.00
2023-04-22T06:16:23.554Z,100.00
2023-04-22T06:18:50.025Z,100.00
2023-04-22T06:21:16.666Z,100.00
2023-04-22T06:23:43.373Z,100.00
2023-04-22T06:26:10.001Z,100.00
2023-04-22T06:28:36.469Z,100.00
2023-04-22T06:31:02.977Z,100.00
2023-04-22T06:33:29.431Z,100.00
2023-04-22T06:35:55.863Z,100.00
2023-04-22T06:38:22.380Z,100.00
2023-04-22T06:40:48.888Z,100.00
2023-04-22T06:43:15.486Z,100.00
2023-04-22T06:45:42.484Z,100.00
2023-04-22T06:48:08.941Z,100.00
2023-04-22T06:50:36.016Z,100.00
2023-04-22T06:53:02.458Z,100.00
2023-04-22T06:55:29.069Z,100.00
2023-04-22T06:57:56.175Z,100.00
2023-04-22T07:00:22.784Z,100.00
2023-04-22T07:02:49.337Z,100.00
2023-04-22T07:05:16.326Z,100.00
2023-04-22T07:07:42.889Z,100.00
2023-04-22T07:10:10.818Z,100.00
2023-04-22T07:12:37.306Z,100.00
2023-04-22T07:15:04.046Z,100.00
2023-04-22T07:17:30.648Z,100.00
2023-04-22T07:19:57.157Z,100.00
2023-04-22T07:22:23.654Z,100.00
2023-04-22T07:24:50.142Z,100.00
2023-04-22T07:27:17.280Z,100.00
2023-04-22T07:29:43.796Z,100.00
2023-04-22T07:32:10.791Z,100.00
2023-04-22T07:34:37.341Z,100.00
2023-04-22T07:37:05.001Z,100.00
2023-04-22T07:39:31.606Z,100.00
2023-04-22T07:41:58.592Z,100.00
2023-04-22T07:44:25.199Z,100.00
2023-04-22T07:46:51.835Z,100.00
2023-04-22T07:49:18.417Z,100.00
2023-04-22T07:51:45.531Z,100.00
2023-04-22T07:54:12.351Z,100.00
2023-04-22T07:56:38.886Z,100.00
2023-04-22T07:59:05.987Z,100.00
2023-04-22T08:01:32.626Z,100.00
2023-04-22T08:03:59.426Z,100.00
2023-04-22T08:06:27.978Z,100.00
2023-04-22T08:08:54.572Z,100.00
2023-04-22T08:11:21.198Z,100.00
2023-04-22T08:13:47.714Z,100.00
2023-04-22T08:16:14.357Z,100.00
2023-04-22T08:18:41.100Z,100.00
2023-04-22T08:21:07.688Z,100.00
2023-04-22T08:23:34.289Z,100.00
2023-04-22T08:26:00.817Z,100.00
2023-04-22T08:28:27.323Z,100.00
2023-04-22T08:30:53.956Z,100.00
2023-04-22T08:33:20.498Z,100.00
2023-04-22T08:35:47.924Z,100.00
2023-04-22T08:38:14.421Z,100.00
2023-04-22T08:40:42.384Z,100.00
2023-04-22T08:43:09.665Z,100.00
2023-04-22T08:45:39.490Z,100.00
2023-04-22T08:48:08.663Z,100.00
2023-04-22T08:50:37.495Z,100.00
2023-04-22T08:53:04.077Z,100.00
2023-04-22T08:55:31.413Z,100.00
2023-04-22T08:58:01.086Z,100.00
2023-04-22T09:00:27.782Z,100.00
2023-04-22T09:02:55.192Z,100.00
2023-04-22T09:05:24.771Z,100.00
2023-04-22T09:07:52.865Z,100.00
2023-04-22T09:10:19.975Z,100.00
2023-04-22T09:12:48.587Z,100.00
2023-04-22T09:15:15.178Z,100.00
2023-04-22T09:17:43.306Z,100.00
2023-04-22T09:20:10.478Z,100.00
2023-04-22T09:22:42.686Z,100.00
2023-04-22T09:25:20.527Z,100.00
2023-04-22T09:27:51.049Z,100.00
2023-04-22T09:30:22.699Z,100.00
2023-04-22T09:32:54.671Z,96.46
2023-04-22T09:35:31.042Z,99.21
2023-04-22T09:37:59.075Z,96.56
2023-04-22T09:40:26.841Z,96.63
2023-04-22T09:42:58.553Z,97.34
2023-04-22T09:45:35.868Z,100.00
2023-04-22T09:48:14.259Z,100.00
2023-04-22T09:50:44.550Z,100.00
2023-04-22T09:53:14.320Z,100.00
2023-04-22T09:55:44.651Z,100.00
2023-04-22T09:58:14.062Z,96.50
2023-04-22T10:00:44.904Z,96.51
2023-04-22T10:03:11.685Z,95.73
2023-04-22T10:05:38.939Z,96.09
2023-04-22T10:08:06.890Z,93.11
2023-04-22T10:10:34.361Z,90.97
2023-04-22T10:13:01.600Z,88.61
2023-04-22T10:15:33.394Z,85.38
2023-04-22T10:18:00.909Z,86.59
2023-04-22T10:20:30.098Z,90.83
2023-04-22T10:22:56.899Z,85.53
2023-04-22T10:25:25.783Z,85.05
2023-04-22T10:28:05.963Z,83.45
2023-04-22T10:30:35.258Z,81.09
2023-04-22T10:33:20.682Z,79.28
2023-04-22T10:36:10.418Z,79.78
2023-04-22T10:38:37.981Z,81.52
2023-04-22T10:41:04.832Z,78.38
2023-04-22T10:43:45.562Z,78.52
2023-04-22T10:46:37.609Z,79.16
2023-04-22T10:49:11.971Z,84.53
2023-04-22T10:51:46.234Z,86.13
2023-04-22T10:54:31.545Z,76.38
2023-04-22T10:57:09.652Z,71.73
2023-04-22T10:59:53.016Z,71.36
2023-04-22T11:02:21.552Z,69.51
2023-04-22T11:04:48.981Z,68.82
2023-04-22T11:07:20.378Z,68.59
2023-04-22T11:09:50.929Z,66.91
2023-04-22T11:12:36.006Z,75.16
2023-04-22T11:15:09.067Z,68.92
2023-04-22T11:17:37.482Z,65.91
2023-04-22T11:20:05.959Z,64.43
2023-04-22T11:22:36.944Z,64.18
2023-04-22T11:25:05.479Z,65.92
2023-04-22T11:27:32.853Z,67.87
2023-04-22T11:30:04.595Z,69.75
2023-04-22T11:32:32.158Z,68.96
2023-04-22T11:34:58.689Z,70.16
2023-04-22T11:37:25.371Z,70.83
2023-04-22T11:40:13.796Z,68.19
2023-04-22T11:42:39.705Z,72.86
2023-04-22T11:45:08.102Z,71.56
2023-04-22T11:47:35.601Z,72.35
2023-04-22T11:50:07.121Z,72.42
2023-04-22T11:52:52.173Z,76.44
2023-04-22T11:55:30.110Z,75.85
2023-04-22T11:57:57.956Z,77.21
2023-04-22T12:00:29.716Z,77.34
2023-04-22T12:02:58.909Z,77.03
2023-04-22T12:05:44.055Z,78.14
2023-04-22T12:08:13.692Z,79.89
2023-04-22T12:10:41.876Z,81.29
2023-04-22T12:13:09.158Z,81.85
2023-04-22T12:15:43.113Z,82.28
2023-04-22T12:18:12.201Z,84.61
2023-04-22T12:20:42.553Z,83.75
2023-04-22T12:23:14.382Z,83.85
2023-04-22T12:25:41.803Z,82.34
2023-04-22T12:28:08.819Z,79.90
2023-04-22T12:30:35.454Z,80.43
2023-04-22T12:33:02.208Z,80.47
2023-04-22T12:35:28.698Z,77.93
2023-04-22T12:37:55.239Z,74.06
2023-04-22T12:40:21.831Z,74.00
2023-04-22T12:42:48.313Z,77.07
2023-04-22T12:45:16.153Z,78.05
2023-04-22T12:47:43.026Z,78.71
2023-04-22T12:50:09.728Z,76.74
2023-04-22T12:52:36.366Z,79.16
2023-04-22T12:55:02.895Z,77.87
2023-04-22T12:57:29.431Z,78.53
2023-04-22T12:59:56.593Z,73.23
2023-04-22T13:02:23.297Z,69.69
2023-04-22T13:04:49.830Z,66.40
2023-04-22T13:07:17.473Z,64.93
2023-04-22T13:09:44.354Z,67.68
2023-04-22T13:12:11.236Z,64.94
2023-04-22T13:14:37.819Z,64.55
2023-04-22T13:17:04.469Z,63.50
2023-04-22T13:19:31.860Z,60.29
2023-04-22T13:21:58.465Z,61.62
2023-04-22T13:24:25.024Z,61.83
2023-04-22T13:26:51.600Z,62.10
2023-04-22T13:29:18.285Z,63.89
2023-04-22T13:31:44.908Z,65.79
2023-04-22T13:34:11.952Z,67.82
2023-04-22T13:36:38.472Z,67.40
2023-04-22T13:39:05.837Z,68.46
2023-04-22T13:41:32.352Z,66.08
2023-04-22T13:43:59.660Z,64.83
2023-04-22T13:46:27.232Z,66.12
2023-04-22T13:48:54.755Z,69.55
2023-04-22T13:51:21.219Z,70.64
2023-04-22T13:53:47.721Z,71.98
2023-04-22T13:56:14.519Z,74.98
2023-04-22T13:58:42.438Z,77.67
2023-04-22T14:01:09.329Z,77.66
2023-04-22T14:03:36.550Z,80.73
2023-04-22T14:06:03.846Z,84.09
2023-04-22T14:08:30.637Z,85.47
2023-04-22T14:10:59.276Z,86.63
2023-04-22T14:13:29.858Z,86.57
2023-04-22T14:15:56.566Z,89.51
2023-04-22T14:18:23.382Z,92.02
2023-04-22T14:20:51.326Z,92.35
2023-04-22T14:23:19.153Z,91.64
2023-04-22T14:25:47.149Z,95.79
2023-04-22T14:28:15.190Z,98.42
2023-04-22T14:30:42.811Z,100.00
2023-04-22T14:33:09.591Z,100.00
2023-04-22T14:35:37.246Z,100.00
2023-04-22T14:38:07.141Z,100.00
2023-04-22T14:40:33.880Z,100.00
2023-04-22T14:43:02.623Z,100.00
2023-04-22T14:45:30.724Z,100.00
2023-04-22T14:47:58.066Z,100.00
2023-04-22T14:50:25.620Z,100.00
2023-04-22T14:52:53.434Z,100.00
2023-04-22T14:55:23.809Z,100.00
2023-04-22T14:57:53.538Z,100.00
2023-04-22T15:00:20.096Z,100.00
2023-04-22T15:02:47.046Z,100.00
2023-04-22T15:05:13.717Z,100.00
2023-04-22T15:07:40.372Z,100.00
2023-04-22T15:10:08.027Z,100.00
2023-04-22T15:12:34.618Z,100.00
2023-04-22T15:15:01.262Z,100.00
2023-04-22T15:17:29.019Z,100.00
2023-04-22T15:19:57.674Z,100.00
2023-04-22T15:22:25.300Z,100.00
2023-04-22T15:24:51.919Z,100.00
2023-04-22T15:27:18.566Z,100.00
2023-04-22T15:29:46.475Z,100.00
2023-04-22T15:32:13.043Z,100.00
2023-04-22T15:34:39.987Z,100.00
2023-04-22T15:37:07.898Z,100.00
2023-04-22T15:39:41.689Z,100.00
2023-04-22T15:42:08.477Z,100.00
2023-04-22T15:44:34.956Z,100.00
2023-04-22T15:47:01.548Z,100.00
2023-04-22T15:49:28.097Z,100.00
2023-04-22T15:51:54.646Z,100.00
2023-04-22T15:54:21.113Z,100.00
2023-04-22T15:56:47.663Z,100.00
2023-04-22T15:59:14.201Z,100.00
2023-04-22T16:01:40.963Z,100.00
2023-04-22T16:04:07.873Z,100.00
2023-04-22T16:06:35.629Z,100.00
2023-04-22T16:09:02.115Z,100.00
2023-04-22T16:11:28.565Z,100.00
2023-04-22T16:13:55.011Z,100.00
2023-04-22T16:16:21.776Z,100.00
2023-04-22T16:18:48.549Z,100.00
2023-04-22T16:21:15.116Z,100.00
2023-04-22T16:23:41.652Z,100.00
2023-04-22T16:26:08.206Z,100.00
2023-04-22T16:28:34.658Z,100.00
2023-04-22T16:31:01.257Z,100.00
2023-04-22T16:33:28.038Z,100.00
2023-04-22T16:35:54.495Z,100.00
2023-04-22T16:38:21.073Z,100.00
2023-04-22T16:40:47.581Z,100.00
2023-04-22T16:43:14.069Z,100.00
2023-04-22T16:45:40.708Z,100.00
2023-04-22T16:48:07.259Z,100.00
2023-04-22T16:50:33.804Z,100.00
2023-04-22T16:53:00.274Z,100.00
2023-04-22T16:55:26.775Z,100.00
2023-04-22T16:57:53.316Z,100.00
2023-04-22T17:00:20.849Z,100.00
2023-04-22T17:02:47.392Z,100.00
2023-04-22T17:05:13.963Z,100.00
2023-04-22T17:07:41.531Z,100.00
2023-04-22T17:10:08.655Z,100.00
2023-04-22T17:12:35.213Z,100.00
2023-04-22T17:15:01.753Z,100.00
2023-04-22T17:17:28.506Z,100.00
2023-04-22T17:19:55.131Z,100.00
2023-04-22T17:22:23.441Z,100.00
2023-04-22T17:24:50.249Z,100.00
2023-04-22T17:27:16.809Z,100.00
2023-04-22T17:29:43.367Z,100.00
2023-04-22T17:32:09.967Z,100.00
2023-04-22T17:34:36.546Z,100.00
2023-04-22T17:37:03.154Z,100.00
2023-04-22T17:39:29.728Z,100.00
2023-04-22T17:41:58.288Z,100.00
2023-04-22T17:44:25.696Z,100.00
2023-04-22T17:46:52.539Z,100.00
2023-04-22T17:49:18.988Z,100.00
2023-04-22T17:51:45.652Z,100.00
2023-04-22T17:54:12.206Z,100.00
2023-04-22T17:56:38.997Z,100.00
2023-04-22T17:59:05.610Z,100.00
2023-04-22T18:01:32.371Z,100.00
2023-04-22T18:03:59.407Z,100.00
2023-04-22T18:06:26.081Z,100.00
2023-04-22T18:08:52.636Z,100.00
2023-04-22T18:11:19.364Z,100.00
2023-04-22T18:13:45.864Z,100.00
2023-04-22T18:16:12.360Z,100.00
2023-04-22T18:18:38.914Z,100.00
2023-04-22T18:21:05.630Z,100.00
2023-04-22T18:23:32.165Z,100.00
2023-04-22T18:25:58.628Z,100.00
2023-04-22T18:28:25.130Z,100.00
2023-04-22T18:30:52.171Z,100.00
2023-04-22T18:33:18.746Z,100.00
2023-04-22T18:35:45.232Z,100.00
2023-04-22T18:38:11.774Z,100.00
2023-04-22T18:40:38.351Z,100.00
2023-04-22T18:43:04.827Z,100.00
2023-04-22T18:45:31.259Z,100.00
2023-04-22T18:47:58.902Z,100.00
2023-04-22T18:50:25.572Z,100.00
2023-04-22T18:52:52.797Z,100.00
2023-04-22T18:55:19.441Z,100.00
2023-04-22T18:57:46.239Z,100.00
2023-04-22T19:00:13.339Z,100.00
2023-04-22T19:02:42.277Z,100.00
2023-04-22T19:05:10.016Z,100.00
2023-04-22T19:07:37.232Z,100.00
2023-04-22T19:10:04.076Z,100.00
2023-04-22T19:12:30.524Z,100.00
2023-04-22T19:14:59.640Z,100.00
2023-04-22T19:17:26.931Z,100.00
2023-04-22T19:19:53.458Z,100.00
2023-04-22T19:22:21.018Z,100.00
2023-04-22T19:24:48.176Z,100.00
2023-04-22T19:27:14.900Z,100.00
2023-04-22T19:29:42.864Z,100.00
2023-04-22T19:32:11.502Z,100.00
2023-04-22T19:34:38.639Z,100.00
2023-04-22T19:37:05.274Z,100.00
2023-04-22T19:39:31.831Z,100.00
2023-04-22T19:41:58.642Z,100.00
2023-04-22T19:44:25.509Z,100.00
2023-04-22T19:46:52.906Z,100.00
2023-04-22T19:49:19.968Z,100.00
2023-04-22T19:51:46.746Z,100.00
2023-04-22T19:54:13.574Z,100.00
2023-04-22T19:56:41.389Z,100.00
2023-04-22T19:59:08.611Z,100.00
2023-04-22T20:01:39.773Z,100.00
2023-04-22T20:04:06.730Z,100.00
2023-04-22T20:06:33.844Z,100.00
2023-04-22T20:09:05.888Z,100.00
2023-04-22T20:11:32.893Z,100.00
2023-04-22T20:14:03.326Z,100.00
2023-04-22T20:16:30.892Z,100.00
2023-04-22T20:18:58.400Z,100.00
2023-04-22T20:21:31.883Z,100.00
2023-04-22T20:24:01.088Z,100.00
2023-04-22T20:26:28.266Z,100.00
2023-04-22T20:28:55.013Z,100.00
2023-04-22T20:31:23.449Z,100.00
2023-04-22T20:33:51.065Z,100.00
2023-04-22T20:36:18.804Z,100.00
2023-04-22T20:38:48.825Z,100.00
2023-04-22T20:41:18.825Z,100.00
2023-04-22T20:43:49.585Z,100.00
2023-04-22T20:46:22.694Z,100.00
2023-04-22T20:48:50.323Z,100.00
2023-04-22T20:51:16.812Z,100.00
2023-04-22T20:53:44.089Z,100.00
2023-04-22T20:56:10.532Z,100.00
2023-04-22T20:58:37.075Z,100.00
2023-04-22T21:01:10.281Z,100.00
2023-04-22T21:03:39.631Z,100.00
2023-04-22T21:06:06.827Z,100.00
2023-04-22T21:08:34.778Z,100.00
2023-04-22T21:11:01.474Z,100.00
2023-04-22T21:13:28.867Z,100.00
2023-04-22T21:16:10.486Z,100.00
2023-04-22T21:18:43.861Z,100.00
2023-04-22T21:21:10.919Z,100.00
2023-04-22T21:23:40.474Z,100.00
2023-04-22T21:26:09.774Z,100.00
2023-04-22T21:28:37.300Z,100.00
2023-04-22T21:31:04.091Z,100.00
2023-04-22T21:33:32.782Z,100.00
2023-04-22T21:35:59.335Z,100.00
2023-04-22T21:38:29.242Z,100.00
2023-04-22T21:40:55.763Z,100.00
2023-04-22T21:43:22.311Z,100.00
2023-04-22T21:45:48.816Z,100.00
2023-04-22T21:48:15.617Z,100.00
2023-04-22T21:50:42.092Z,100.00
2023-04-22T21:53:08.926Z,100.00
2023-04-22T21:55:38.865Z,100.00
2023-04-22T21:58:05.368Z,100.00
2023-04-22T22:00:32.497Z,100.00
2023-04-22T22:02:59.018Z,100.00
2023-04-22T22:05:25.841Z,100.00
2023-04-22T22:07:55.385Z,100.00
2023-04-22T22:10:22.559Z,100.00
2023-04-22T22:12:49.274Z,100.00
2023-04-22T22:15:16.295Z,100.00
2023-04-22T22:17:43.682Z,100.00
2023-04-22T22:20:12.527Z,100.00
2023-04-22T22:22:43.035Z,100.00
2023-04-22T22:25:12.129Z,100.00
2023-04-22T22:27:46.973Z,100.00
2023-04-22T22:30:13.880Z,100.00
2023-04-22T22:32:40.711Z,100.00
2023-04-22T22:35:07.891Z,100.00
2023-04-22T22:37:35.019Z,100.00
2023-04-22T22:40:01.760Z,100.00
2023-04-22T22:42:28.281Z,100.00
2023-04-22T22:44:55.674Z,100.00
2023-04-22T22:47:22.182Z,100.00
2023-04-22T22:49:48.741Z,100.00
2023-04-22T22:52:15.247Z,100.00
2023-04-22T22:54:42.182Z,100.00
2023-04-22T22:57:09.145Z,100.00
2023-04-22T22:59:37.009Z,100.00
2023-04-22T23:02:03.958Z,100.00
2023-04-22T23:04:30.692Z,100.00
2023-04-22T23:06:57.368Z,100.00
2023-04-22T23:09:23.866Z,100.00
2023-04-22T23:11:51.799Z,100.00
2023-04-22T23:14:19.440Z,100.00
2023-04-22T23:16:49.058Z,100.00
2023-04-22T23:19:19.610Z,100.00
2023-04-22T23:21:46.697Z,100.00
2023-04-22T23:24:14.757Z,100.00
2023-04-22T23:26:42.466Z,100.00
2023-04-22T23:29:09.480Z,100.00
2023-04-22T23:31:36.362Z,100.00
2023-04-22T23:34:05.465Z,100.00
2023-04-22T23:36:36.336Z,100.00
2023-04-22T23:39:04.280Z,100.00
2023-04-22T23:41:30.822Z,100.00
2023-04-22T23:43:57.302Z,100.00
2023-04-22T23:46:23.876Z,100.00
2023-04-22T23:48:50.515Z,100.00
2023-04-22T23:51:17.193Z,100.00
2023-04-22T23:53:45.354Z,100.00
2023-04-22T23:56:12.678Z,100.00
2023-04-22T23:58:39.464Z,100.00
